Time;durP1;ratioP1;P1;durP2;ratioP2;P2;SDS_P1;SDS_P2;PMS_P1;PMS_P2;Temp;Humidity;BMP_temperature;BMP_pressure;BME280_temperature;BME280_humidity;BME280_pressure;Samples;Min_cycle;Max_cycle;Signal;HPM_P1;HPM_P2
2021/07/27 00:00:32;;;;;;;31.40;20.35;;;19.50;99.90;;;;;;5066570;28;20160;-64
2021/07/27 00:03:01;;;;;;;29.95;19.88;;;19.50;99.90;;;;;;5067676;28;20221;-64
2021/07/27 00:05:28;;;;;;;37.97;21.48;;;19.40;99.90;;;;;;5067582;28;20242;-64
2021/07/27 00:07:53;;;;;;;33.00;20.95;;;19.50;99.90;;;;;;5066867;28;20187;-64
2021/07/27 00:10:20;;;;;;;32.03;21.60;;;19.50;99.90;;;;;;5067666;28;20639;-64
2021/07/27 00:12:46;;;;;;;38.22;21.85;;;19.50;99.90;;;;;;5066089;28;20195;-64
2021/07/27 00:15:12;;;;;;;35.17;22.30;;;19.40;99.90;;;;;;5068025;28;20169;-64
2021/07/27 00:17:38;;;;;;;33.35;21.60;;;19.30;99.90;;;;;;5067755;28;20192;-64
2021/07/27 00:20:04;;;;;;;29.75;20.08;;;19.20;99.90;;;;;;5067867;28;20250;-64
2021/07/27 00:22:29;;;;;;;43.75;25.15;;;19.10;99.90;;;;;;5064330;28;20423;-64
2021/07/27 00:24:57;;;;;;;39.17;23.30;;;19.10;99.90;;;;;;5067985;28;20165;-64
2021/07/27 00:27:23;;;;;;;36.05;22.45;;;19.20;99.90;;;;;;5067705;28;20650;-64
2021/07/27 00:29:48;;;;;;;32.80;22.60;;;19.20;99.90;;;;;;5066401;28;20175;-64
2021/07/27 00:32:14;;;;;;;38.78;22.70;;;19.10;99.90;;;;;;5065166;28;20165;-64
2021/07/27 00:34:40;;;;;;;40.10;24.93;;;18.90;99.90;;;;;;5066729;28;20479;-64
2021/07/27 00:37:15;;;;;;;42.17;24.70;;;19.00;99.90;;;;;;5067400;28;20272;-64
2021/07/27 00:39:41;;;;;;;38.47;22.85;;;19.00;99.90;;;;;;5082981;28;20526;-64
2021/07/27 00:42:07;;;;;;;39.58;23.20;;;18.90;99.90;;;;;;5065026;28;20167;-65
2021/07/27 00:44:32;;;;;;;38.95;23.13;;;18.70;99.90;;;;;;5067507;28;20169;-64
2021/07/27 00:46:58;;;;;;;33.92;22.63;;;18.70;99.90;;;;;;5067429;28;20169;-64
2021/07/27 00:49:23;;;;;;;35.30;21.70;;;18.40;99.90;;;;;;5067271;28;20177;-64
2021/07/27 00:51:49;;;;;;;45.53;23.83;;;18.30;99.90;;;;;;5064503;28;20355;-64
2021/07/27 00:54:15;;;;;;;38.90;23.17;;;18.60;99.90;;;;;;5067390;28;20176;-64
2021/07/27 00:56:41;;;;;;;38.42;24.10;;;18.50;99.90;;;;;;5067481;28;20189;-64
2021/07/27 00:59:06;;;;;;;45.05;25.77;;;18.50;99.90;;;;;;5067156;28;20186;-65
2021/07/27 01:01:32;;;;;;;40.55;25.35;;;18.50;99.90;;;;;;5064405;28;20165;-64
2021/07/27 01:03:58;;;;;;;39.22;24.90;;;18.50;99.90;;;;;;5067321;28;20217;-64
2021/07/27 01:06:24;;;;;;;52.63;26.30;;;18.40;99.90;;;;;;5066775;28;20200;-64
2021/07/27 01:08:52;;;;;;;46.15;25.58;;;18.40;99.90;;;;;;5066894;28;20223;-64
2021/07/27 01:11:24;;;;;;;40.80;24.98;;;18.30;99.90;;;;;;5064347;28;20196;-65
2021/07/27 01:13:51;;;;;;;38.67;25.98;;;18.40;99.90;;;;;;5067160;28;20165;-64
2021/07/27 01:16:19;;;;;;;41.13;26.63;;;18.40;99.90;;;;;;5065364;28;20255;-64
2021/07/27 01:19:33;;;;;;;39.35;25.27;;;18.30;99.90;;;;;;5066641;28;20157;-64
2021/07/27 01:43:20;;;;;;;41.72;25.67;;;18.00;99.90;;;;;;5066445;28;20168;-64
2021/07/27 01:45:46;;;;;;;43.17;25.92;;;17.80;99.90;;;;;;5066496;28;20165;-64
2021/07/27 01:48:12;;;;;;;47.30;26.80;;;18.00;99.90;;;;;;5066481;28;20624;-64
2021/07/27 01:50:40;;;;;;;41.40;26.02;;;17.90;99.90;;;;;;5063623;28;20161;-64
2021/07/27 01:53:05;;;;;;;41.15;26.50;;;17.80;99.90;;;;;;5066284;28;20172;-64
2021/07/27 01:55:34;;;;;;;39.95;25.10;;;17.80;99.90;;;;;;5066084;28;20168;-64
2021/07/27 01:58:04;;;;;;;46.67;26.98;;;17.80;99.90;;;;;;5064802;28;20192;-64
2021/07/27 02:00:32;;;;;;;44.97;26.27;;;18.00;99.90;;;;;;5064356;28;20228;-65
2021/07/27 02:02:58;;;;;;;47.75;26.23;;;17.90;99.90;;;;;;5065656;28;20164;-64
2021/07/27 02:05:24;;;;;;;35.58;25.13;;;18.10;99.90;;;;;;5066029;28;20160;-64
2021/07/27 02:07:52;;;;;;;37.88;25.10;;;18.00;99.90;;;;;;5065695;28;20192;-64
2021/07/27 02:10:18;;;;;;;39.47;25.15;;;18.00;99.90;;;;;;5065674;28;20646;-64
2021/07/27 02:12:51;;;;;;;38.97;25.80;;;18.00;99.90;;;;;;5063847;28;20165;-64
2021/07/27 02:15:19;;;;;;;41.00;26.30;;;17.90;99.90;;;;;;5064578;28;20263;-64
2021/07/27 02:17:45;;;;;;;42.65;26.55;;;18.10;99.90;;;;;;5065881;28;20274;-64
2021/07/27 02:20:12;;;;;;;47.13;26.20;;;18.00;99.90;;;;;;5064682;28;20211;-64
2021/07/27 02:22:38;;;;;;;49.95;26.42;;;18.10;99.90;;;;;;5062919;28;20168;-64
2021/07/27 02:25:05;;;;;;;42.83;25.85;;;18.00;99.90;;;;;;5065897;28;20169;-64
2021/07/27 02:27:31;;;;;;;42.42;26.33;;;18.00;99.90;;;;;;5065790;28;20190;-65
2021/07/27 02:29:57;;;;;;;38.97;25.85;;;18.00;99.90;;;;;;5064971;28;20172;-64
2021/07/27 02:32:23;;;;;;;41.47;25.95;;;18.00;99.90;;;;;;5063042;28;20175;-65
2021/07/27 02:34:49;;;;;;;40.90;27.02;;;18.20;99.90;;;;;;5064307;28;20164;-64
2021/07/27 02:37:15;;;;;;;52.95;27.42;;;18.20;99.90;;;;;;5065727;28;20196;-64
2021/07/27 02:39:41;;;;;;;46.28;27.77;;;18.10;99.90;;;;;;5065808;28;20184;-64
2021/07/27 02:42:06;;;;;;;49.38;28.27;;;18.30;99.90;;;;;;5063059;28;20161;-64
2021/07/27 02:44:32;;;;;;;50.17;27.05;;;18.30;99.90;;;;;;5065575;28;20175;-65
2021/07/27 02:47:02;;;;;;;42.65;27.25;;;18.30;99.90;;;;;;5065649;28;20168;-64
2021/07/27 02:49:28;;;;;;;47.00;28.35;;;18.30;99.90;;;;;;5065439;28;20172;-64
2021/07/27 02:51:56;;;;;;;45.63;27.17;;;18.10;99.90;;;;;;5062705;28;20244;-64
2021/07/27 02:54:21;;;;;;;44.63;27.73;;;18.20;99.90;;;;;;5065526;28;20256;-64
2021/07/27 02:56:47;;;;;;;47.15;28.98;;;18.40;99.90;;;;;;5065466;28;20189;-64
2021/07/27 02:59:12;;;;;;;53.20;28.55;;;18.50;99.90;;;;;;5065411;28;20649;-64
2021/07/27 03:01:38;;;;;;;52.35;29.35;;;18.60;99.90;;;;;;5062704;28;20188;-64
2021/07/27 03:04:03;;;;;;;51.63;28.70;;;18.60;99.90;;;;;;5065451;28;20165;-65
2021/07/27 03:06:31;;;;;;;51.95;28.50;;;18.80;99.90;;;;;;5065056;28;20169;-64
2021/07/27 03:11:25;;;;;;;50.03;29.38;;;18.80;99.90;;;;;;5062770;28;20168;-64
2021/07/27 03:13:57;;;;;;;63.55;29.95;;;18.70;99.90;;;;;;5064001;28;20172;-64
2021/07/27 03:16:25;;;;;;;46.65;29.27;;;18.50;99.90;;;;;;5065003;28;20193;-64
2021/07/27 03:18:56;;;;;;;44.45;28.50;;;18.50;99.90;;;;;;5065244;28;20539;-64
2021/07/27 03:21:23;;;;;;;43.92;27.50;;;18.50;99.90;;;;;;5061023;28;20184;-64
2021/07/27 03:23:50;;;;;;;45.38;28.17;;;18.40;99.90;;;;;;5065347;28;20157;-64
2021/07/27 03:26:17;;;;;;;45.50;27.40;;;18.40;99.90;;;;;;5065161;28;20172;-64
2021/07/27 03:28:43;;;;;;;45.03;26.30;;;18.20;99.90;;;;;;5065284;28;20168;-64
2021/07/27 03:31:09;;;;;;;36.60;26.13;;;18.00;99.90;;;;;;5061376;28;20529;-64
2021/07/27 03:33:34;;;;;;;50.08;27.13;;;18.10;99.90;;;;;;5065039;28;20390;-64
2021/07/27 03:36:00;;;;;;;46.63;26.45;;;18.10;99.90;;;;;;5064867;28;20169;-65
2021/07/27 03:38:26;;;;;;;46.22;27.45;;;18.00;99.90;;;;;;5065017;28;20176;-64
2021/07/27 03:40:51;;;;;;;57.20;28.92;;;18.20;99.90;;;;;;5062252;28;20320;-64
2021/07/27 03:43:17;;;;;;;48.03;28.75;;;18.20;99.90;;;;;;5067542;28;20157;-64
2021/07/27 03:45:43;;;;;;;41.72;27.90;;;18.20;99.90;;;;;;5068806;28;20183;-64
2021/07/27 03:48:08;;;;;;;49.50;27.55;;;18.40;99.90;;;;;;5068637;28;20545;-64
2021/07/27 03:50:34;;;;;;;50.92;28.38;;;18.40;99.90;;;;;;5066497;28;20226;-65
2021/07/27 03:52:59;;;;;;;50.75;28.90;;;18.50;99.90;;;;;;5067760;28;20174;-64
2021/07/27 03:55:25;;;;;;;48.45;28.23;;;18.60;99.90;;;;;;5068390;28;20167;-64
2021/07/27 03:57:54;;;;;;;50.70;28.83;;;18.60;99.90;;;;;;5068566;28;20199;-64
2021/07/27 04:00:22;;;;;;;63.97;32.10;;;18.30;99.90;;;;;;5067693;28;20171;-65
2021/07/27 04:02:48;;;;;;;55.97;31.45;;;18.20;99.90;;;;;;5066754;28;20153;-64
2021/07/27 04:05:14;;;;;;;53.92;30.10;;;18.50;99.90;;;;;;5067969;28;20223;-64
2021/07/27 04:07:41;;;;;;;52.13;30.25;;;18.70;99.90;;;;;;5067847;28;20175;-64
2021/07/27 04:10:07;;;;;;;54.50;31.30;;;18.60;99.90;;;;;;5068126;28;20526;-64
2021/07/27 04:12:36;;;;;;;55.80;32.10;;;18.70;99.90;;;;;;5065520;28;20161;-64
2021/07/27 04:15:01;;;;;;;61.60;34.03;;;18.70;99.90;;;;;;5068033;28;20168;-65
2021/07/27 04:17:27;;;;;;;60.03;33.30;;;18.70;99.90;;;;;;5066560;28;20246;-64
2021/07/27 04:19:53;;;;;;;65.63;32.90;;;18.60;99.90;;;;;;5068071;28;20173;-64
2021/07/27 04:22:19;;;;;;;63.95;32.38;;;18.40;99.90;;;;;;5064947;28;20583;-65
2021/07/27 04:24:45;;;;;;;67.88;32.17;;;18.20;99.90;;;;;;5066608;28;20187;-64
2021/07/27 04:27:11;;;;;;;55.70;31.77;;;18.30;99.90;;;;;;5067845;28;20164;-64
2021/07/27 04:29:37;;;;;;;58.67;29.65;;;18.10;99.90;;;;;;5067680;28;20199;-64
2021/07/27 04:32:03;;;;;;;59.90;30.85;;;18.10;99.90;;;;;;5065185;28;20165;-65
2021/07/27 04:34:28;;;;;;;53.13;29.35;;;18.00;99.90;;;;;;5067574;28;20639;-64
2021/07/27 04:36:54;;;;;;;53.50;27.77;;;18.00;99.90;;;;;;5067471;28;20251;-64
2021/07/27 04:39:20;;;;;;;49.97;26.40;;;18.10;99.90;;;;;;5067687;28;20161;-64
2021/07/27 04:41:46;;;;;;;51.15;27.92;;;18.10;99.90;;;;;;5065018;28;20160;-64
2021/07/27 04:44:11;;;;;;;45.08;26.05;;;18.20;99.90;;;;;;5066465;28;20157;-64
2021/07/27 04:46:37;;;;;;;48.92;26.67;;;18.20;99.90;;;;;;5067441;28;20169;-64
2021/07/27 04:49:03;;;;;;;48.45;25.90;;;18.30;99.90;;;;;;5067435;28;20172;-64
2021/07/27 04:51:29;;;;;;;48.55;26.95;;;18.20;99.90;;;;;;5064591;28;20168;-64
2021/07/27 04:54:01;;;;;;;54.53;26.00;;;18.30;99.90;;;;;;5066706;28;20161;-64
2021/07/27 04:56:26;;;;;;;46.42;25.90;;;18.40;99.90;;;;;;5067058;28;20203;-64
2021/07/27 04:58:52;;;;;;;50.08;25.77;;;18.60;99.90;;;;;;5067213;28;20658;-64
2021/07/27 05:01:18;;;;;;;44.67;25.02;;;18.70;99.90;;;;;;5064570;28;20639;-64
2021/07/27 05:03:44;;;;;;;50.00;26.55;;;18.70;99.90;;;;;;5067351;28;20259;-64
2021/07/27 05:06:09;;;;;;;54.00;25.00;;;18.70;99.90;;;;;;5066670;28;20226;-65
2021/07/27 05:08:35;;;;;;;44.58;24.35;;;18.60;99.90;;;;;;5066661;28;20204;-65
2021/07/27 05:11:02;;;;;;;45.38;25.20;;;18.50;99.90;;;;;;5064398;28;20188;-64
2021/07/27 05:13:27;;;;;;;40.13;23.33;;;18.50;99.90;;;;;;5066950;28;20161;-65
2021/07/27 05:15:53;;;;;;;37.95;24.05;;;18.50;99.90;;;;;;5066916;28;20164;-65
2021/07/27 05:18:19;;;;;;;42.70;23.73;;;18.50;99.90;;;;;;5066730;28;20793;-65
2021/07/27 05:20:47;;;;;;;44.63;24.13;;;18.50;99.90;;;;;;5064044;28;20210;-65
2021/07/27 05:23:13;;;;;;;44.38;22.83;;;18.60;99.90;;;;;;5066923;28;20169;-64
2021/07/27 05:25:39;;;;;;;49.65;23.75;;;18.50;99.90;;;;;;5066535;28;20234;-64
2021/07/27 05:28:08;;;;;;;39.03;22.33;;;18.60;99.90;;;;;;5066824;28;20654;-64
2021/07/27 05:30:34;;;;;;;46.72;22.55;;;18.60;99.90;;;;;;5064416;28;20168;-66
2021/07/27 05:33:02;;;;;;;36.83;22.33;;;18.60;99.90;;;;;;5066256;28;20199;-64
2021/07/27 05:35:27;;;;;;;44.85;22.08;;;18.70;99.90;;;;;;5066527;28;20234;-64
2021/07/27 05:37:53;;;;;;;34.00;23.27;;;18.80;99.90;;;;;;5066293;28;20240;-64
2021/07/27 05:40:18;;;;;;;41.20;23.88;;;19.00;99.90;;;;;;5065851;28;20255;-65
2021/07/27 05:42:44;;;;;;;31.02;20.83;;;18.80;99.90;;;;;;5064172;28;20214;-64
2021/07/27 05:45:10;;;;;;;30.17;21.65;;;18.70;99.90;;;;;;5066409;28;20191;-64
2021/07/27 05:47:36;;;;;;;35.92;22.15;;;18.90;99.90;;;;;;5066390;28;20182;-64
2021/07/27 05:50:03;;;;;;;34.28;21.25;;;18.80;99.90;;;;;;5066298;28;20555;-64
2021/07/27 05:52:29;;;;;;;32.85;20.63;;;18.70;99.90;;;;;;5063317;28;20203;-65
2021/07/27 05:54:54;;;;;;;38.65;21.40;;;18.80;99.90;;;;;;5066261;28;20168;-65
2021/07/27 05:57:20;;;;;;;37.10;20.92;;;18.80;99.90;;;;;;5065958;28;20208;-65
2021/07/27 05:59:45;;;;;;;32.38;20.50;;;18.60;99.90;;;;;;5066102;28;20192;-64
2021/07/27 06:02:12;;;;;;;33.75;20.95;;;18.70;99.90;;;;;;5063531;28;20176;-64
2021/07/27 06:04:38;;;;;;;39.65;22.13;;;18.70;99.90;;;;;;5065133;28;20168;-64
2021/07/27 06:07:04;;;;;;;34.88;21.75;;;18.70;99.90;;;;;;5065793;28;20194;-65
2021/07/27 06:09:30;;;;;;;33.08;20.45;;;19.00;99.90;;;;;;5065620;28;20216;-64
2021/07/27 06:11:55;;;;;;;35.25;22.23;;;18.80;99.90;;;;;;5063405;28;20170;-65
2021/07/27 06:14:21;;;;;;;32.72;21.13;;;18.80;99.90;;;;;;5065711;28;20163;-65
2021/07/27 06:16:47;;;;;;;35.60;21.55;;;19.00;99.90;;;;;;5065725;28;20624;-64
2021/07/27 06:19:12;;;;;;;32.80;21.50;;;19.10;99.90;;;;;;5065767;28;20247;-65
2021/07/27 06:21:39;;;;;;;32.58;20.77;;;19.30;99.90;;;;;;5061650;28;20165;-65
2021/07/27 06:24:09;;;;;;;32.95;20.80;;;19.10;99.90;;;;;;5065827;28;20796;-66
2021/07/27 06:26:38;;;;;;;39.75;21.48;;;19.30;99.90;;;;;;5065544;28;20171;-64
2021/07/27 06:29:04;;;;;;;31.00;20.15;;;19.30;99.90;;;;;;5065704;28;20248;-65
2021/07/27 06:31:31;;;;;;;38.80;21.40;;;19.20;99.90;;;;;;5063023;28;20202;-64
2021/07/27 06:33:57;;;;;;;33.55;20.35;;;19.40;99.90;;;;;;5065743;28;20218;-65
2021/07/27 06:36:23;;;;;;;34.55;20.02;;;19.40;99.90;;;;;;5065222;28;20184;-64
2021/07/27 06:38:48;;;;;;;31.98;21.10;;;19.30;99.90;;;;;;5065538;28;20223;-64
2021/07/27 06:41:14;;;;;;;33.85;19.70;;;19.20;99.90;;;;;;5062895;28;20169;-64
2021/07/27 06:43:41;;;;;;;37.95;19.33;;;19.20;99.90;;;;;;5065822;28;20180;-65
2021/07/27 06:46:07;;;;;;;30.80;18.98;;;19.20;99.90;;;;;;5065609;28;20240;-64
2021/07/27 06:48:33;;;;;;;27.70;19.38;;;19.30;99.90;;;;;;5065472;28;20168;-64
2021/07/27 06:51:10;;;;;;;32.38;19.10;;;19.50;99.90;;;;;;5062702;28;20152;-64
2021/07/27 06:53:36;;;;;;;30.10;19.00;;;19.70;99.90;;;;;;5065377;28;20165;-65
2021/07/27 06:56:02;;;;;;;26.50;18.65;;;20.00;99.90;;;;;;5065335;28;20248;-65
2021/07/27 06:58:28;;;;;;;26.95;17.67;;;20.20;99.90;;;;;;5065226;28;20161;-65
2021/07/27 07:00:53;;;;;;;26.98;18.25;;;20.20;99.90;;;;;;5062760;28;20149;-65
2021/07/27 07:03:19;;;;;;;28.80;17.63;;;20.20;99.90;;;;;;5065273;28;20157;-65
2021/07/27 07:05:44;;;;;;;34.60;18.35;;;20.30;99.90;;;;;;5065067;28;20211;-65
2021/07/27 07:08:10;;;;;;;32.33;18.45;;;20.00;99.90;;;;;;5064857;28;20578;-64
2021/07/27 07:10:36;;;;;;;32.85;18.88;;;20.00;99.90;;;;;;5062898;28;20450;-66
2021/07/27 07:13:02;;;;;;;25.92;18.92;;;20.00;99.90;;;;;;5065122;28;20229;-64
2021/07/27 07:15:27;;;;;;;30.58;18.20;;;19.90;99.90;;;;;;5065515;28;20179;-64
2021/07/27 07:17:53;;;;;;;30.30;18.95;;;20.00;99.90;;;;;;5069144;28;20206;-64
2021/07/27 07:20:20;;;;;;;32.50;19.90;;;20.00;99.90;;;;;;5068533;28;20195;-65
2021/07/27 07:22:45;;;;;;;32.38;20.30;;;20.20;99.90;;;;;;5066916;28;20530;-64
2021/07/27 07:25:11;;;;;;;30.88;20.95;;;20.10;99.90;;;;;;5069030;28;20152;-64
2021/07/27 07:27:37;;;;;;;30.70;19.80;;;20.40;99.90;;;;;;5068988;28;20637;-64
2021/07/27 07:30:04;;;;;;;28.67;20.80;;;20.40;99.90;;;;;;5067581;28;20176;-65
2021/07/27 07:32:29;;;;;;;33.90;20.33;;;20.30;99.90;;;;;;5066456;28;20165;-65
2021/07/27 07:34:55;;;;;;;38.60;20.35;;;20.30;99.90;;;;;;5068839;28;20523;-64
2021/07/27 07:37:21;;;;;;;31.25;19.05;;;20.70;99.90;;;;;;5068371;28;20200;-64
2021/07/27 07:39:46;;;;;;;28.77;20.27;;;20.80;99.90;;;;;;5068563;28;20259;-65
2021/07/27 07:42:12;;;;;;;26.17;18.88;;;21.10;99.90;;;;;;5066346;28;20495;-65
2021/07/27 07:44:38;;;;;;;27.92;19.58;;;21.10;99.90;;;;;;5067808;28;20206;-65
2021/07/27 07:47:04;;;;;;;29.55;19.05;;;21.20;99.90;;;;;;5067594;28;20169;-65
2021/07/27 07:49:30;;;;;;;32.65;18.55;;;21.20;99.90;;;;;;5068539;28;20202;-64
2021/07/27 07:51:56;;;;;;;26.50;17.98;;;20.90;99.90;;;;;;5065769;28;20168;-65
2021/07/27 07:54:26;;;;;;;21.63;17.00;;;20.60;99.90;;;;;;5068416;28;20171;-65
2021/07/27 07:56:52;;;;;;;23.85;17.30;;;20.40;99.90;;;;;;5068302;28;20287;-64
2021/07/27 07:59:18;;;;;;;32.70;17.08;;;20.30;99.90;;;;;;5068125;28;20654;-65
2021/07/27 08:01:45;;;;;;;30.55;18.90;;;20.10;99.90;;;;;;5065665;28;20173;-64
2021/07/27 08:04:11;;;;;;;27.90;18.17;;;19.90;99.90;;;;;;5068436;28;20185;-65
2021/07/27 08:06:36;;;;;;;33.10;18.85;;;20.20;99.90;;;;;;5068024;28;20259;-64
2021/07/27 08:09:02;;;;;;;24.65;18.42;;;20.10;99.90;;;;;;5067928;28;20220;-64
2021/07/27 08:11:28;;;;;;;30.70;19.50;;;19.90;99.90;;;;;;5065138;28;20196;-64
2021/07/27 08:13:56;;;;;;;33.30;18.92;;;19.90;99.90;;;;;;5067780;28;20167;-64
2021/07/27 08:16:22;;;;;;;28.67;19.17;;;19.90;99.90;;;;;;5067526;28;20193;-64
2021/07/27 08:18:47;;;;;;;25.52;19.55;;;19.70;99.90;;;;;;5067648;28;20195;-64
2021/07/27 08:21:13;;;;;;;33.65;21.33;;;19.70;99.90;;;;;;5065009;28;20657;-64
2021/07/27 08:23:44;;;;;;;26.42;21.15;;;19.80;99.90;;;;;;5067909;28;20513;-64
2021/07/27 08:26:09;;;;;;;36.70;23.60;;;19.90;99.90;;;;;;5067616;28;20161;-64
2021/07/27 08:28:36;;;;;;;35.65;22.40;;;20.00;99.90;;;;;;5066661;28;20214;-64
2021/07/27 08:31:01;;;;;;;30.55;23.20;;;20.00;99.90;;;;;;5064991;28;20165;-64
2021/07/27 08:33:27;;;;;;;37.78;23.23;;;20.00;99.90;;;;;;5067534;28;20168;-64
2021/07/27 08:35:52;;;;;;;40.40;23.58;;;19.90;99.90;;;;;;5066102;28;20161;-64
2021/07/27 08:38:18;;;;;;;34.75;23.33;;;20.00;99.90;;;;;;5067227;28;20234;-64
2021/07/27 08:40:47;;;;;;;34.28;22.27;;;19.90;99.90;;;;;;5064966;28;20172;-64
2021/07/27 08:43:15;;;;;;;38.33;23.45;;;19.90;99.90;;;;;;5067432;28;20160;-64
2021/07/27 08:45:41;;;;;;;28.35;22.10;;;20.10;99.90;;;;;;5067523;28;20157;-64
2021/07/27 08:48:08;;;;;;;38.20;22.20;;;20.10;99.90;;;;;;5067464;28;20243;-65
2021/07/27 08:50:34;;;;;;;35.00;22.88;;;20.10;99.90;;;;;;5065219;28;20177;-66
2021/07/27 08:53:00;;;;;;;34.67;24.15;;;20.10;99.90;;;;;;5065996;28;20168;-64
2021/07/27 08:55:26;;;;;;;28.55;21.92;;;20.40;99.90;;;;;;5067409;28;20171;-64
2021/07/27 08:57:59;;;;;;;38.90;23.13;;;20.50;99.90;;;;;;5067088;28;20184;-65
2021/07/27 09:00:26;;;;;;;36.15;23.30;;;20.50;99.90;;;;;;5066204;28;20175;-64
2021/07/27 09:02:51;;;;;;;31.98;22.67;;;20.70;99.90;;;;;;5065806;28;20161;-65
2021/07/27 09:05:17;;;;;;;27.88;22.33;;;21.00;99.90;;;;;;5067036;28;20195;-65
2021/07/27 09:07:43;;;;;;;37.20;22.90;;;21.00;99.90;;;;;;5066952;28;20179;-65
2021/07/27 09:10:18;;;;;;;31.08;20.95;;;20.70;99.90;;;;;;5066799;28;20213;-65
2021/07/27 09:13:01;;;;;;;29.63;22.75;;;20.80;99.90;;;;;;5064911;28;20160;-64
2021/07/27 09:15:29;;;;;;;33.40;22.25;;;21.20;99.90;;;;;;5067068;28;20165;-64
2021/07/27 09:18:05;;;;;;;33.20;21.73;;;21.20;99.90;;;;;;5066767;28;20208;-64
2021/07/27 09:20:42;;;;;;;31.58;21.17;;;21.20;99.90;;;;;;5064869;28;20203;-65
2021/07/27 09:23:13;;;;;;;28.02;20.27;;;21.10;99.90;;;;;;5066469;28;20644;-64
2021/07/27 09:25:44;;;;;;;30.85;20.08;;;21.20;99.90;;;;;;5066539;28;20157;-65
2021/07/27 09:28:10;;;;;;;34.08;20.85;;;21.20;99.90;;;;;;5066660;28;20186;-64
2021/07/27 09:30:37;;;;;;;34.47;20.75;;;21.30;99.90;;;;;;5063970;28;20390;-64
2021/07/27 09:33:07;;;;;;;27.33;21.40;;;21.20;99.90;;;;;;5065283;28;20169;-64
2021/07/27 09:35:34;;;;;;;27.33;21.65;;;21.30;99.90;;;;;;5066279;28;20176;-65
2021/07/27 09:38:17;;;;;;;26.58;20.30;;;21.60;99.90;;;;;;5064774;28;20717;-64
2021/07/27 09:41:04;;;;;;;29.75;20.63;;;21.60;99.90;;;;;;5063566;28;20173;-65
2021/07/27 09:43:31;;;;;;;29.30;20.30;;;21.50;99.90;;;;;;5064997;28;20172;-65
2021/07/27 09:46:02;;;;;;;30.90;20.52;;;21.60;99.90;;;;;;5065620;28;20220;-65
2021/07/27 09:48:29;;;;;;;25.48;20.00;;;21.50;99.90;;;;;;5065072;28;20207;-65
2021/07/27 09:50:55;;;;;;;30.77;20.77;;;21.80;99.90;;;;;;5063404;28;20180;-65
2021/07/27 09:53:22;;;;;;;31.13;19.85;;;21.90;99.90;;;;;;5065749;28;20240;-64
2021/07/27 09:55:50;;;;;;;23.35;19.33;;;21.90;99.90;;;;;;5066224;28;20161;-64
2021/07/27 09:58:16;;;;;;;24.42;17.35;;;22.00;99.90;;;;;;5065983;28;20263;-65
2021/07/27 10:01:03;;;;;;;26.65;19.02;;;22.10;99.90;;;;;;5063402;28;20176;-65
2021/07/27 10:03:34;;;;;;;23.90;17.42;;;22.30;99.90;;;;;;5065943;28;20231;-65
2021/07/27 10:06:02;;;;;;;24.35;17.48;;;22.20;99.90;;;;;;5065975;28;20157;-65
2021/07/27 10:08:33;;;;;;;25.95;17.08;;;22.30;99.90;;;;;;5065738;28;20271;-64
2021/07/27 10:11:12;;;;;;;22.02;15.98;;;22.20;99.90;;;;;;5063192;28;20158;-65
2021/07/27 10:13:40;;;;;;;17.25;15.50;;;22.30;99.90;;;;;;5065810;28;20173;-64
2021/07/27 10:16:06;;;;;;;31.77;15.75;;;22.60;99.90;;;;;;5065670;28;20214;-64
2021/07/27 10:18:34;;;;;;;23.15;16.58;;;22.60;99.90;;;;;;5065215;28;20199;-65
2021/07/27 10:21:17;;;;;;;18.70;15.18;;;22.80;99.90;;;;;;5062905;28;20169;-66
2021/07/27 10:23:43;;;;;;;21.45;14.57;;;22.70;99.90;;;;;;5065542;28;20161;-65
2021/07/27 10:26:09;;;;;;;21.17;16.00;;;22.80;99.90;;;;;;5063497;28;20403;-65
2021/07/27 10:28:34;;;;;;;24.05;14.40;;;23.00;99.90;;;;;;5063760;28;20161;-65
2021/07/27 10:31:07;;;;;;;29.83;15.07;;;23.20;99.90;;;;;;5061909;28;20196;-65
2021/07/27 10:33:33;;;;;;;24.48;15.52;;;23.50;99.90;;;;;;5065268;28;20185;-65
2021/07/27 10:36:00;;;;;;;26.50;16.10;;;23.70;99.90;;;;;;5063356;28;20412;-65
2021/07/27 10:38:36;;;;;;;21.25;15.70;;;24.00;99.90;;;;;;5064216;28;20540;-65
2021/07/27 10:41:16;;;;;;;21.20;15.77;;;24.20;99.90;;;;;;5062270;28;20173;-65
2021/07/27 10:43:42;;;;;;;22.02;15.82;;;24.00;99.90;;;;;;5065001;28;20249;-65
2021/07/27 10:46:10;;;;;;;23.13;15.57;;;23.90;99.90;;;;;;5065192;28;20216;-65
2021/07/27 10:48:39;;;;;;;17.90;15.10;;;24.00;99.90;;;;;;5065506;28;20153;-65
2021/07/27 10:51:04;;;;;;;17.58;15.32;;;23.80;99.90;;;;;;5064088;28;20199;-65
2021/07/27 10:53:34;;;;;;;22.33;16.15;;;23.80;99.90;;;;;;5069288;28;20172;-65
2021/07/27 10:56:10;;;;;;;22.80;16.10;;;23.40;99.90;;;;;;5069715;28;20176;-65
2021/07/27 10:58:36;;;;;;;26.92;17.15;;;23.80;99.90;;;;;;5068146;28;20168;-65
2021/07/27 11:01:11;;;;;;;19.98;16.20;;;23.80;99.90;;;;;;5066782;28;20178;-65
2021/07/27 11:03:38;;;;;;;28.00;16.55;;;24.00;99.90;;;;;;5069072;28;20160;-65
2021/07/27 11:06:05;;;;;;;21.80;16.08;;;24.10;99.90;;;;;;5069268;28;20236;-65
2021/07/27 11:08:31;;;;;;;22.20;15.68;;;24.20;99.90;;;;;;5068825;28;20208;-64
2021/07/27 11:11:10;;;;;;;24.35;15.18;;;24.00;99.90;;;;;;5066626;28;20398;-65
2021/07/27 11:13:37;;;;;;;28.02;13.80;;;23.90;99.90;;;;;;5069255;28;20164;-65
2021/07/27 11:16:03;;;;;;;24.95;13.77;;;24.30;99.90;;;;;;5069103;28;20202;-65
2021/07/27 11:18:30;;;;;;;25.48;14.02;;;24.40;99.90;;;;;;5069039;28;20184;-65
2021/07/27 11:20:57;;;;;;;27.83;14.07;;;24.60;99.90;;;;;;5066331;28;20176;-65
2021/07/27 11:23:23;;;;;;;20.15;13.57;;;24.40;99.90;;;;;;5068770;28;20168;-65
2021/07/27 11:25:56;;;;;;;22.95;12.23;;;24.50;99.90;;;;;;5069034;28;20526;-65
2021/07/27 11:28:21;;;;;;;21.70;12.88;;;24.60;99.90;;;;;;5068971;28;20164;-65
2021/07/27 11:30:47;;;;;;;21.88;12.98;;;24.40;99.90;;;;;;5066220;28;20382;-65
2021/07/27 11:33:15;;;;;;;15.65;12.23;;;24.20;99.90;;;;;;5069049;28;20168;-65
2021/07/27 11:35:49;;;;;;;21.00;11.85;;;24.30;99.90;;;;;;5069047;28;20210;-64
2021/07/27 11:38:27;;;;;;;18.98;11.38;;;24.70;99.90;;;;;;5068394;28;20243;-65
2021/07/27 11:41:06;;;;;;;16.15;11.18;;;24.90;99.90;;;;;;5064758;28;20192;-65
2021/07/27 11:43:39;;;;;;;21.40;9.18;;;24.60;99.90;;;;;;5068553;28;20622;-65
2021/07/27 11:46:06;;;;;;;15.60;10.73;;;24.60;99.90;;;;;;5068507;28;20221;-65
2021/07/27 11:48:34;;;;;;;12.52;9.77;;;24.70;99.90;;;;;;5068629;28;20187;-65
2021/07/27 11:51:00;;;;;;;13.02;9.27;;;25.00;99.90;;;;;;5065869;28;20214;-65
2021/07/27 11:53:28;;;;;;;17.75;9.02;;;25.20;99.90;;;;;;5068081;28;20252;-65
2021/07/27 11:55:53;;;;;;;12.60;10.07;;;25.70;99.90;;;;;;5068513;28;20152;-65
2021/07/27 11:58:29;;;;;;;12.57;9.50;;;25.70;99.90;;;;;;5068098;28;20199;-65
2021/07/27 12:00:59;;;;;;;17.98;8.98;;;25.70;99.90;;;;;;5065508;28;20168;-65
2021/07/27 12:03:25;;;;;;;11.68;9.10;;;25.40;99.90;;;;;;5067956;28;20176;-65
2021/07/27 12:05:53;;;;;;;10.32;8.63;;;25.30;99.90;;;;;;5068201;28;20529;-65
2021/07/27 12:08:19;;;;;;;17.35;8.73;;;25.30;99.90;;;;;;5067211;28;20279;-65
2021/07/27 12:10:44;;;;;;;13.80;8.82;;;25.30;99.90;;;;;;5065490;28;20228;-65
2021/07/27 12:13:11;;;;;;;14.65;9.13;;;24.80;99.90;;;;;;5068340;28;20223;-65
2021/07/27 12:15:37;;;;;;;13.48;9.45;;;24.60;99.90;;;;;;5068010;28;20168;-65
2021/07/27 12:18:03;;;;;;;12.50;8.55;;;24.90;99.90;;;;;;5067976;28;20195;-65
2021/07/27 12:20:28;;;;;;;12.98;8.27;;;25.00;99.90;;;;;;5066369;28;20168;-66
2021/07/27 12:22:54;;;;;;;12.27;8.93;;;25.00;99.90;;;;;;5066213;28;20165;-65
2021/07/27 12:25:20;;;;;;;15.68;9.70;;;25.20;99.90;;;;;;5067943;28;20169;-65
2021/07/27 12:27:46;;;;;;;16.58;9.98;;;25.00;99.90;;;;;;5067834;28;20171;-65
2021/07/27 12:30:12;;;;;;;13.00;9.23;;;24.60;99.90;;;;;;5067588;28;20169;-65
2021/07/27 12:32:38;;;;;;;14.43;9.45;;;24.30;99.90;;;;;;5064677;28;20175;-64
2021/07/27 12:35:05;;;;;;;16.08;9.75;;;24.20;99.90;;;;;;5067522;28;20198;-64
2021/07/27 12:37:33;;;;;;;20.15;10.98;;;23.80;99.90;;;;;;5067188;28;20224;-64
2021/07/27 12:39:59;;;;;;;15.18;9.90;;;23.90;99.90;;;;;;5067631;28;20239;-64
2021/07/27 12:42:24;;;;;;;20.45;10.38;;;24.10;99.90;;;;;;5064619;28;20193;-64
2021/07/27 12:44:50;;;;;;;15.30;10.75;;;24.00;99.90;;;;;;5067102;28;20172;-65
2021/07/27 12:47:16;;;;;;;20.60;12.20;;;23.90;99.90;;;;;;5067547;28;20232;-65
2021/07/27 12:49:41;;;;;;;10.48;3.63;;;23.50;99.90;;;;;;5067616;28;20180;-64
2021/07/27 12:52:11;;;;;;;7.53;5.47;;;21.80;99.90;;;;;;5064349;28;20168;-64